Svitzer Leixoes — CSXW6 — position and weather

sailwx.info

Track history (hours):
 
Tides and Currents Weather Stations Pressure Air Temp Water Temp Dewpoint Dewpoint Depression Visibility Wind Speed Wind Dir Waves Ship Positions

Svitzer Leixoes

Last reported at 2017-Jan-20 05:33 UTC. Time now 2017-Jan-20 05:55 UTC.
Position N 38°42' W 009°10'.

Length 28 m; draft 3.6 m.

Type: Towing. MMSI: 263622000.

Date/timePositionNaut miles runAvg speedWind from/ knotsBaromVisibWave heightAir tempDewpointWater temp
2017-Jan-20 05:33N 38°42' W 009°10'0 0.4
2017-Jan-20 04:33N 38°42' W 009°09'4 4.3
2017-Jan-20 03:32N 38°41' W 009°04'5 4.7
2017-Jan-20 02:32N 38°42' W 009°10'0 0.1
2017-Jan-20 01:31N 38°42' W 009°10'0 0.0
2017-Jan-20 00:25N 38°42' W 009°10'2 2.3
2017-Jan-19 23:29N 38°42' W 009°07'2 2.5
2017-Jan-19 22:31N 38°40' W 009°09'2 1.9
2017-Jan-19 21:33N 38°42' W 009°10'0 0.0
2017-Jan-19 20:16N 38°42' W 009°10'0 0.0
2017-Jan-19 19:09N 38°42' W 009°10'2 3.5
2017-Jan-19 18:28N 38°42' W 009°06'2 2.6
2017-Jan-19 17:29N 38°42' W 009°10'0 0.0
2017-Jan-19 16:32N 38°42' W 009°10'0 0.0
2017-Jan-19 15:31N 38°42' W 009°10'0 0.1
2017-Jan-19 14:21N 38°42' W 009°09'2 2.3
2017-Jan-19 13:25N 38°42' W 009°07'2 1.7
2017-Jan-19 12:03N 38°42' W 009°10'0 0.1
2017-Jan-19 11:17N 38°42' W 009°10'0 0.0
2017-Jan-19 10:23N 38°42' W 009°10'0 0.0
2017-Jan-19 09:32N 38°42' W 009°10'0 0.0
2017-Jan-19 08:32N 38°42' W 009°10'2 2.0
2017-Jan-19 07:29N 38°40' W 009°09'2 1.9
2017-Jan-19 06:23N 38°42' W 009°10'0 0.0
2017-Jan-19 05:33N 38°42' W 009°10'0 0.0
2017-Jan-19 04:29N 38°42' W 009°10'0 0.0
2017-Jan-19 03:28N 38°42' W 009°10'0 0.0
2017-Jan-19 02:31N 38°42' W 009°10'0 0.0
2017-Jan-19 01:20N 38°42' W 009°10'0 0.0
2017-Jan-19 00:14N 38°42' W 009°10'0 0.0
2017-Jan-18 23:31N 38°42' W 009°10'0 0.0
2017-Jan-18 22:30N 38°42' W 009°10'0 0.0
2017-Jan-18 21:08N 38°42' W 009°10'0 0.0
2017-Jan-18 20:30N 38°42' W 009°10'0 0.0
2017-Jan-18 19:27N 38°42' W 009°10'0 0.0
2017-Jan-18 18:33N 38°42' W 009°10'0 0.0
2017-Jan-18 17:16N 38°42' W 009°10'3 3.2
2017-Jan-18 16:28N 38°43' W 009°06'0 0.1
2017-Jan-18 15:20N 38°42' W 009°06'3 2.4
2017-Jan-18 14:17N 38°42' W 009°10'0 0.1
2017-Jan-18 13:17N 38°42' W 009°10'0 0.0
2017-Jan-18 12:19N 38°42' W 009°10'0 0.0
2017-Jan-18 11:31N 38°42' W 009°10'0 0.0
2017-Jan-18 10:30N 38°42' W 009°10'0 0.0
2017-Jan-18 09:30N 38°42' W 009°10'0 0.2
2017-Jan-18 08:33N 38°42' W 009°10'0 0.2
2017-Jan-18 07:29N 38°42' W 009°10'0 0.0
2017-Jan-18 06:18N 38°42' W 009°10'0 0.0
2017-Jan-18 05:23N 38°42' W 009°10'0 0.0
2017-Jan-18 04:33N 38°42' W 009°10'0 0.0
2017-Jan-18 03:33N 38°42' W 009°10'0 0.0
2017-Jan-18 02:05N 38°42' W 009°10'0 0.0
2017-Jan-18 01:25N 38°42' W 009°10'0 0.0
2017-Jan-18 00:32N 38°42' W 009°10'1 0.6
2017-Jan-17 23:31N 38°42' W 009°09'2 2.5
2017-Jan-17 22:31N 38°43' W 009°07'2 2.4
2017-Jan-17 21:30N 38°42' W 009°10'0 0.0
2017-Jan-17 20:30N 38°42' W 009°10'0 0.0
2017-Jan-17 19:33N 38°42' W 009°10'2 1.7
2017-Jan-17 18:33N 38°41' W 009°08'1 1.1
2017-Jan-17 17:31N 38°41' W 009°07'3 2.8
2017-Jan-17 16:31N 38°42' W 009°10'0 0.0
2017-Jan-17 15:31N 38°42' W 009°10'0 0.0
2017-Jan-17 14:25N 38°42' W 009°10'0 0.0
2017-Jan-17 13:33N 38°42' W 009°10'5 4.8
2017-Jan-17 12:33N 38°41' W 009°04'5 4.6
2017-Jan-17 11:32N 38°42' W 009°10'1 1.4
2017-Jan-17 10:33N 38°42' W 009°08'0 0.4
2017-Jan-17 09:33N 38°42' W 009°08'1 0.8
2017-Jan-17 08:20N 38°42' W 009°10'0 0.0
2017-Jan-17 07:33N 38°42' W 009°10'2 2.1
2017-Jan-17 06:30N 38°41' W 009°12'1 0.8
2017-Jan-17 05:27N 38°41' W 009°11'1 1.4
2017-Jan-17 04:33N 38°42' W 009°10'0 0.0
2017-Jan-17 03:30N 38°42' W 009°10'0 0.0
2017-Jan-17 02:30N 38°42' W 009°10'0 0.0
2017-Jan-17 01:30N 38°42' W 009°10'0 0.0
2017-Jan-17 00:29N 38°42' W 009°10'0 0.0
2017-Jan-16 23:32N 38°42' W 009°10'0 0.0
2017-Jan-16 22:32N 38°42' W 009°10'0 0.0
2017-Jan-16 21:31N 38°42' W 009°10'0 0.0
2017-Jan-16 20:33N 38°42' W 009°10'0 0.0
2017-Jan-16 19:33N 38°42' W 009°10'0 0.0
2017-Jan-16 18:33N 38°42' W 009°10'5 4.5
2017-Jan-16 17:30N 38°41' W 009°04'3 3.6
2017-Jan-16 16:33N 38°41' W 009°08'2 1.5
2017-Jan-16 15:33N 38°42' W 009°10'0 0.0
2017-Jan-16 14:20N 38°42' W 009°10'0 0.0
2017-Jan-16 13:33N 38°42' W 009°10'0 0.0
2017-Jan-16 12:22N 38°42' W 009°10'1 1.6
2017-Jan-16 11:32N 38°41' W 009°11'5 4.6
2017-Jan-16 10:29N 38°41' W 009°17'6 6.4
2017-Jan-16 09:33N 38°42' W 009°10'0 0.2
2017-Jan-16 08:33N 38°42' W 009°10'0 0.2
2017-Jan-16 07:30N 38°42' W 009°10'0 0.0
2017-Jan-16 06:32N 38°42' W 009°10'0 0.0
2017-Jan-16 05:19N 38°42' W 009°10'0 0.0
2017-Jan-16 04:24N 38°42' W 009°10'0 0.0
2017-Jan-16 03:26N 38°42' W 009°10'0 0.0
2017-Jan-16 02:30N 38°42' W 009°10'0 0.0
2017-Jan-16 01:31N 38°42' W 009°10'0 0.0
2017-Jan-16 00:32N 38°42' W 009°10'0 0.0
2017-Jan-15 23:32N 38°42' W 009°10'0 0.0
2017-Jan-15 22:32N 38°42' W 009°10'0 0.0
2017-Jan-15 21:31N 38°42' W 009°10'0 0.0
2017-Jan-15 19:26N 38°42' W 009°10'0 0.0
2017-Jan-15 18:28N 38°42' W 009°10'0 0.0
2017-Jan-15 17:31N 38°42' W 009°10'0 0.0
2017-Jan-15 16:33N 38°42' W 009°10'0 0.0
2017-Jan-15 15:24N 38°42' W 009°10'0 0.0
2017-Jan-15 14:33N 38°42' W 009°10'0 0.0
2017-Jan-15 13:29N 38°42' W 009°10'0 0.0
2017-Jan-15 12:23N 38°42' W 009°10'0 0.0
2017-Jan-15 11:20N 38°42' W 009°10'0 0.0
2017-Jan-15 10:23N 38°42' W 009°10'0 0.0
2017-Jan-15 09:28N 38°42' W 009°10'0 0.0
2017-Jan-15 08:33N 38°42' W 009°10'0 0.0
2017-Jan-15 07:17N 38°42' W 009°10'0 0.0
2017-Jan-15 06:30N 38°42' W 009°10'0 0.0
2017-Jan-15 05:31N 38°42' W 009°10'0 0.0
2017-Jan-15 04:33N 38°42' W 009°10'0 0.0
2017-Jan-15 03:33N 38°42' W 009°10'0 0.0
2017-Jan-15 02:19N 38°42' W 009°10'0 0.0
2017-Jan-15 01:31N 38°42' W 009°10'0 0.0
2017-Jan-15 00:15N 38°42' W 009°10'0 0.0
2017-Jan-14 23:18N 38°42' W 009°10'0 0.0
2017-Jan-14 22:24N 38°42' W 009°10'0 0.0
2017-Jan-14 21:30N 38°42' W 009°10'0 0.0
2017-Jan-14 20:33N 38°42' W 009°10'1 1.0
2017-Jan-14 19:33N 38°42' W 009°08'1 0.8
2017-Jan-14 18:24N 38°42' W 009°10'0 0.0
2017-Jan-14 17:28N 38°42' W 009°10'0 0.0
2017-Jan-14 16:28N 38°42' W 009°10'0 0.0
2017-Jan-14 15:30N 38°42' W 009°10'0 0.0
2017-Jan-14 14:16N 38°42' W 009°10'0 0.0
2017-Jan-14 13:30N 38°42' W 009°10'0 0.0
2017-Jan-14 12:33N 38°42' W 009°10'0 0.0
2017-Jan-14 11:32N 38°42' W 009°10'0 0.0
2017-Jan-14 10:29N 38°42' W 009°10'0 0.0
2017-Jan-14 09:33N 38°42' W 009°10'0 0.0
2017-Jan-14 08:10N 38°42' W 009°10'2 2.2
2017-Jan-14 07:05N 38°43' W 009°07'2 4.1
2017-Jan-14 06:33N 38°42' W 009°09'0 0.3
2017-Jan-14 05:33N 38°42' W 009°10'0 0.0
2017-Jan-14 04:31N 38°42' W 009°10'0 0.0
2017-Jan-14 03:33N 38°42' W 009°10'0 0.0
2017-Jan-13 23:29N 38°42' W 009°10'0 0.0
2017-Jan-13 22:31N 38°42' W 009°10'0 0.0
2017-Jan-13 21:28N 38°42' W 009°10'0 0.0
2017-Jan-13 20:30N 38°42' W 009°10'0 0.0
2017-Jan-13 19:29N 38°42' W 009°10'0 0.0
2017-Jan-13 18:33N 38°42' W 009°10'0 0.0
2017-Jan-13 17:29N 38°42' W 009°10'0 0.2
2017-Jan-13 16:33N 38°42' W 009°09'1 0.7
2017-Jan-13 15:33N 38°42' W 009°09'1 0.8
2017-Jan-13 14:25N 38°42' W 009°10'0 0.0
2017-Jan-13 13:28N 38°42' W 009°10'0 0.0
2017-Jan-13 12:33N 38°42' W 009°10'0 0.0
2017-Jan-13 11:33N 38°42' W 009°10'0 0.0
2017-Jan-13 09:33N 38°42' W 009°10'0 0.0
2017-Jan-13 08:33N 38°42' W 009°10'0 0.0
2017-Jan-13 07:31N 38°42' W 009°10'0 0.0
2017-Jan-13 06:27N 38°42' W 009°10'0 0.0
2017-Jan-13 05:30N 38°42' W 009°10'0 0.0
2017-Jan-13 04:29N 38°42' W 009°10'0 0.0
2017-Jan-13 03:30N 38°42' W 009°10'0 0.0
2017-Jan-13 02:30N 38°42' W 009°10'4 3.9
2017-Jan-13 01:31N 38°41' W 009°14'4 3.5
2017-Jan-13 00:23N 38°42' W 009°09'0 0.2
2017-Jan-12 23:28N 38°42' W 009°10'0 0.0
2017-Jan-12 22:28N 38°42' W 009°10'0 0.0
2017-Jan-12 20:23N 38°42' W 009°10'0 0.0
2017-Jan-12 19:27N 38°42' W 009°10'0 0.4
2017-Jan-12 18:32N 38°42' W 009°10'0 0.4
2017-Jan-12 17:32N 38°42' W 009°10'0 0.0
2017-Jan-12 16:32N 38°42' W 009°10'1 0.7
2017-Jan-12 15:32N 38°42' W 009°10'0 0.0
2017-Jan-12 14:33N 38°42' W 009°10'1 0.7
2017-Jan-12 13:33N 38°42' W 009°10'0 0.0
2017-Jan-12 12:32N 38°42' W 009°10'0 0.0
2017-Jan-12 11:33N 38°42' W 009°10'0 0.0
2017-Jan-12 10:32N 38°42' W 009°10'0 0.0
2017-Jan-12 09:30N 38°42' W 009°10'0 0.0
2017-Jan-12 08:32N 38°42' W 009°10'0 0.0
2017-Jan-12 07:29N 38°42' W 009°10'0 0.0
2017-Jan-12 06:26N 38°42' W 009°10'0 0.0
2017-Jan-12 05:23N 38°42' W 009°10'0 0.0
2017-Jan-12 04:32N 38°42' W 009°10'0 0.0
2017-Jan-12 03:32N 38°42' W 009°10'0 0.0
2017-Jan-12 02:33N 38°42' W 009°10'0 0.0
2017-Jan-12 01:32N 38°42' W 009°10'0 0.0
2017-Jan-12 00:16N 38°42' W 009°10'0 0.0
2017-Jan-11 23:09N 38°42' W 009°10'0 0.0
2017-Jan-11 22:25N 38°42' W 009°10'0 0.0
2017-Jan-11 21:30N 38°42' W 009°10'0 0.0
2017-Jan-11 20:28N 38°42' W 009°10'0 0.0
2017-Jan-11 19:30N 38°42' W 009°10'0 0.0
2017-Jan-11 18:30N 38°42' W 009°10'0 0.0
2017-Jan-11 17:33N 38°42' W 009°10'0 0.0
2017-Jan-11 15:25N 38°42' W 009°10'2 2.6
2017-Jan-11 14:33N 38°40' W 009°09'1 0.5
2017-Jan-11 13:31N 38°41' W 009°09'0 0.0
2017-Jan-11 12:33N 38°41' W 009°09'0 0.4
2017-Jan-11 11:33N 38°40' W 009°09'0 0.2
2017-Jan-11 10:30N 38°40' W 009°09'0 0.0
2017-Jan-11 09:33N 38°40' W 009°09'2 2.1
2017-Jan-11 08:31N 38°42' W 009°10'0 0.0
2017-Jan-11 07:31N 38°42' W 009°10'0 0.0
2017-Jan-11 06:32N 38°42' W 009°10'0 0.0
2017-Jan-11 05:33N 38°42' W 009°10'0 0.0
2017-Jan-11 04:33N 38°42' W 009°10'1 1.2
2017-Jan-11 03:33N 38°42' W 009°11'9 9.5
2017-Jan-11 02:33N 38°38' W 009°22'8 7.0
2017-Jan-11 01:27N 38°41' W 009°13'6 5.5
2017-Jan-11 00:20N 38°44' W 009°06'3 3.9
2017-Jan-10 23:31N 38°42' W 009°10'0 0.0
2017-Jan-10 22:33N 38°42' W 009°10'0 0.0
2017-Jan-10 21:32N 38°42' W 009°10'0 0.0
2017-Jan-10 20:24N 38°42' W 009°10'0 0.0
2017-Jan-10 19:30N 38°42' W 009°10'0 0.3
2017-Jan-10 18:24N 38°42' W 009°10'1 1.4
2017-Jan-10 17:30N 38°41' W 009°11'1 1.1
2017-Jan-10 16:27N 38°42' W 009°10'0 0.4
2017-Jan-10 15:26N 38°42' W 009°10'0 0.0
2017-Jan-10 14:29N 38°42' W 009°10'0 0.0
2017-Jan-10 13:31N 38°42' W 009°10'0 0.0
2017-Jan-10 12:20N 38°42' W 009°10'0 0.0
2017-Jan-10 11:28N 38°42' W 009°10'1 0.8
2017-Jan-10 10:28N 38°42' W 009°11'1 0.8
2017-Jan-10 09:33N 38°42' W 009°10'0 0.0
2017-Jan-10 08:27N 38°42' W 009°10'0 0.0
2017-Jan-10 07:25N 38°42' W 009°10'0 0.2
2017-Jan-10 06:33N 38°42' W 009°10'  
Track history (hours):
 
Tides and Currents Weather Stations Pressure Air Temp Water Temp Dewpoint Dewpoint Depression Visibility Wind Speed Wind Dir Waves Ship Positions

Svitzer Leixoes

Last reported at 2017-Jan-20 05:33 UTC. Time now 2017-Jan-20 05:55 UTC.
Position N 38°42' W 009°10'.

Length 28 m; draft 3.6 m.

Type: Towing. MMSI: 263622000.

Date/timePositionNaut miles runAvg speedWind from/ knotsBaromVisibWave heightAir tempDewpointWater temp
2017-Jan-20 05:33N 38°42' W 009°10'0 0.4
2017-Jan-20 04:33N 38°42' W 009°09'4 4.3
2017-Jan-20 03:32N 38°41' W 009°04'5 4.7
2017-Jan-20 02:32N 38°42' W 009°10'0 0.1
2017-Jan-20 01:31N 38°42' W 009°10'0 0.0
2017-Jan-20 00:25N 38°42' W 009°10'2 2.3
2017-Jan-19 23:29N 38°42' W 009°07'2 2.5
2017-Jan-19 22:31N 38°40' W 009°09'2 1.9
2017-Jan-19 21:33N 38°42' W 009°10'0 0.0
2017-Jan-19 20:16N 38°42' W 009°10'0 0.0
2017-Jan-19 19:09N 38°42' W 009°10'2 3.5
2017-Jan-19 18:28N 38°42' W 009°06'2 2.6
2017-Jan-19 17:29N 38°42' W 009°10'0 0.0
2017-Jan-19 16:32N 38°42' W 009°10'0 0.0
2017-Jan-19 15:31N 38°42' W 009°10'0 0.1
2017-Jan-19 14:21N 38°42' W 009°09'2 2.3
2017-Jan-19 13:25N 38°42' W 009°07'2 1.7
2017-Jan-19 12:03N 38°42' W 009°10'0 0.1
2017-Jan-19 11:17N 38°42' W 009°10'0 0.0
2017-Jan-19 10:23N 38°42' W 009°10'0 0.0
2017-Jan-19 09:32N 38°42' W 009°10'0 0.0
2017-Jan-19 08:32N 38°42' W 009°10'2 2.0
2017-Jan-19 07:29N 38°40' W 009°09'2 1.9
2017-Jan-19 06:23N 38°42' W 009°10'0 0.0
2017-Jan-19 05:33N 38°42' W 009°10'0 0.0
2017-Jan-19 04:29N 38°42' W 009°10'0 0.0
2017-Jan-19 03:28N 38°42' W 009°10'0 0.0
2017-Jan-19 02:31N 38°42' W 009°10'0 0.0
2017-Jan-19 01:20N 38°42' W 009°10'0 0.0
2017-Jan-19 00:14N 38°42' W 009°10'0 0.0
2017-Jan-18 23:31N 38°42' W 009°10'0 0.0
2017-Jan-18 22:30N 38°42' W 009°10'0 0.0
2017-Jan-18 21:08N 38°42' W 009°10'0 0.0
2017-Jan-18 20:30N 38°42' W 009°10'0 0.0
2017-Jan-18 19:27N 38°42' W 009°10'0 0.0
2017-Jan-18 18:33N 38°42' W 009°10'0 0.0
2017-Jan-18 17:16N 38°42' W 009°10'3 3.2
2017-Jan-18 16:28N 38°43' W 009°06'0 0.1
2017-Jan-18 15:20N 38°42' W 009°06'3 2.4
2017-Jan-18 14:17N 38°42' W 009°10'0 0.1
2017-Jan-18 13:17N 38°42' W 009°10'0 0.0
2017-Jan-18 12:19N 38°42' W 009°10'0 0.0
2017-Jan-18 11:31N 38°42' W 009°10'0 0.0
2017-Jan-18 10:30N 38°42' W 009°10'0 0.0
2017-Jan-18 09:30N 38°42' W 009°10'0 0.2
2017-Jan-18 08:33N 38°42' W 009°10'0 0.2
2017-Jan-18 07:29N 38°42' W 009°10'0 0.0
2017-Jan-18 06:18N 38°42' W 009°10'0 0.0
2017-Jan-18 05:23N 38°42' W 009°10'0 0.0
2017-Jan-18 04:33N 38°42' W 009°10'0 0.0
2017-Jan-18 03:33N 38°42' W 009°10'0 0.0
2017-Jan-18 02:05N 38°42' W 009°10'0 0.0
2017-Jan-18 01:25N 38°42' W 009°10'0 0.0
2017-Jan-18 00:32N 38°42' W 009°10'1 0.6
2017-Jan-17 23:31N 38°42' W 009°09'2 2.5
2017-Jan-17 22:31N 38°43' W 009°07'2 2.4
2017-Jan-17 21:30N 38°42' W 009°10'0 0.0
2017-Jan-17 20:30N 38°42' W 009°10'0 0.0
2017-Jan-17 19:33N 38°42' W 009°10'2 1.7
2017-Jan-17 18:33N 38°41' W 009°08'1 1.1
2017-Jan-17 17:31N 38°41' W 009°07'3 2.8
2017-Jan-17 16:31N 38°42' W 009°10'0 0.0
2017-Jan-17 15:31N 38°42' W 009°10'0 0.0
2017-Jan-17 14:25N 38°42' W 009°10'0 0.0
2017-Jan-17 13:33N 38°42' W 009°10'5 4.8
2017-Jan-17 12:33N 38°41' W 009°04'5 4.6
2017-Jan-17 11:32N 38°42' W 009°10'1 1.4
2017-Jan-17 10:33N 38°42' W 009°08'0 0.4
2017-Jan-17 09:33N 38°42' W 009°08'1 0.8
2017-Jan-17 08:20N 38°42' W 009°10'0 0.0
2017-Jan-17 07:33N 38°42' W 009°10'2 2.1
2017-Jan-17 06:30N 38°41' W 009°12'1 0.8
2017-Jan-17 05:27N 38°41' W 009°11'1 1.4
2017-Jan-17 04:33N 38°42' W 009°10'0 0.0
2017-Jan-17 03:30N 38°42' W 009°10'0 0.0
2017-Jan-17 02:30N 38°42' W 009°10'0 0.0
2017-Jan-17 01:30N 38°42' W 009°10'0 0.0
2017-Jan-17 00:29N 38°42' W 009°10'0 0.0
2017-Jan-16 23:32N 38°42' W 009°10'0 0.0
2017-Jan-16 22:32N 38°42' W 009°10'0 0.0
2017-Jan-16 21:31N 38°42' W 009°10'0 0.0
2017-Jan-16 20:33N 38°42' W 009°10'0 0.0
2017-Jan-16 19:33N 38°42' W 009°10'0 0.0
2017-Jan-16 18:33N 38°42' W 009°10'5 4.5
2017-Jan-16 17:30N 38°41' W 009°04'3 3.6
2017-Jan-16 16:33N 38°41' W 009°08'2 1.5
2017-Jan-16 15:33N 38°42' W 009°10'0 0.0
2017-Jan-16 14:20N 38°42' W 009°10'0 0.0
2017-Jan-16 13:33N 38°42' W 009°10'0 0.0
2017-Jan-16 12:22N 38°42' W 009°10'1 1.6
2017-Jan-16 11:32N 38°41' W 009°11'5 4.6
2017-Jan-16 10:29N 38°41' W 009°17'6 6.4
2017-Jan-16 09:33N 38°42' W 009°10'0 0.2
2017-Jan-16 08:33N 38°42' W 009°10'0 0.2
2017-Jan-16 07:30N 38°42' W 009°10'0 0.0
2017-Jan-16 06:32N 38°42' W 009°10'0 0.0
2017-Jan-16 05:19N 38°42' W 009°10'0 0.0
2017-Jan-16 04:24N 38°42' W 009°10'0 0.0
2017-Jan-16 03:26N 38°42' W 009°10'0 0.0
2017-Jan-16 02:30N 38°42' W 009°10'0 0.0
2017-Jan-16 01:31N 38°42' W 009°10'0 0.0
2017-Jan-16 00:32N 38°42' W 009°10'0 0.0
2017-Jan-15 23:32N 38°42' W 009°10'0 0.0
2017-Jan-15 22:32N 38°42' W 009°10'0 0.0
2017-Jan-15 21:31N 38°42' W 009°10'0 0.0
2017-Jan-15 19:26N 38°42' W 009°10'0 0.0
2017-Jan-15 18:28N 38°42' W 009°10'0 0.0
2017-Jan-15 17:31N 38°42' W 009°10'0 0.0
2017-Jan-15 16:33N 38°42' W 009°10'0 0.0
2017-Jan-15 15:24N 38°42' W 009°10'0 0.0
2017-Jan-15 14:33N 38°42' W 009°10'0 0.0
2017-Jan-15 13:29N 38°42' W 009°10'0 0.0
2017-Jan-15 12:23N 38°42' W 009°10'0 0.0
2017-Jan-15 11:20N 38°42' W 009°10'0 0.0
2017-Jan-15 10:23N 38°42' W 009°10'0 0.0
2017-Jan-15 09:28N 38°42' W 009°10'0 0.0
2017-Jan-15 08:33N 38°42' W 009°10'0 0.0
2017-Jan-15 07:17N 38°42' W 009°10'0 0.0
2017-Jan-15 06:30N 38°42' W 009°10'0 0.0
2017-Jan-15 05:31N 38°42' W 009°10'0 0.0
2017-Jan-15 04:33N 38°42' W 009°10'0 0.0
2017-Jan-15 03:33N 38°42' W 009°10'0 0.0
2017-Jan-15 02:19N 38°42' W 009°10'0 0.0
2017-Jan-15 01:31N 38°42' W 009°10'0 0.0
2017-Jan-15 00:15N 38°42' W 009°10'0 0.0
2017-Jan-14 23:18N 38°42' W 009°10'0 0.0
2017-Jan-14 22:24N 38°42' W 009°10'0 0.0
2017-Jan-14 21:30N 38°42' W 009°10'0 0.0
2017-Jan-14 20:33N 38°42' W 009°10'1 1.0
2017-Jan-14 19:33N 38°42' W 009°08'1 0.8
2017-Jan-14 18:24N 38°42' W 009°10'0 0.0
2017-Jan-14 17:28N 38°42' W 009°10'0 0.0
2017-Jan-14 16:28N 38°42' W 009°10'0 0.0
2017-Jan-14 15:30N 38°42' W 009°10'0 0.0
2017-Jan-14 14:16N 38°42' W 009°10'0 0.0
2017-Jan-14 13:30N 38°42' W 009°10'0 0.0
2017-Jan-14 12:33N 38°42' W 009°10'0 0.0
2017-Jan-14 11:32N 38°42' W 009°10'0 0.0
2017-Jan-14 10:29N 38°42' W 009°10'0 0.0
2017-Jan-14 09:33N 38°42' W 009°10'0 0.0
2017-Jan-14 08:10N 38°42' W 009°10'2 2.2
2017-Jan-14 07:05N 38°43' W 009°07'2 4.1
2017-Jan-14 06:33N 38°42' W 009°09'0 0.3
2017-Jan-14 05:33N 38°42' W 009°10'0 0.0
2017-Jan-14 04:31N 38°42' W 009°10'0 0.0
2017-Jan-14 03:33N 38°42' W 009°10'0 0.0
2017-Jan-13 23:29N 38°42' W 009°10'0 0.0
2017-Jan-13 22:31N 38°42' W 009°10'0 0.0
2017-Jan-13 21:28N 38°42' W 009°10'0 0.0
2017-Jan-13 20:30N 38°42' W 009°10'0 0.0
2017-Jan-13 19:29N 38°42' W 009°10'0 0.0
2017-Jan-13 18:33N 38°42' W 009°10'0 0.0
2017-Jan-13 17:29N 38°42' W 009°10'0 0.2
2017-Jan-13 16:33N 38°42' W 009°09'1 0.7
2017-Jan-13 15:33N 38°42' W 009°09'1 0.8
2017-Jan-13 14:25N 38°42' W 009°10'0 0.0
2017-Jan-13 13:28N 38°42' W 009°10'0 0.0
2017-Jan-13 12:33N 38°42' W 009°10'0 0.0
2017-Jan-13 11:33N 38°42' W 009°10'0 0.0
2017-Jan-13 09:33N 38°42' W 009°10'0 0.0
2017-Jan-13 08:33N 38°42' W 009°10'0 0.0
2017-Jan-13 07:31N 38°42' W 009°10'0 0.0
2017-Jan-13 06:27N 38°42' W 009°10'0 0.0
2017-Jan-13 05:30N 38°42' W 009°10'0 0.0
2017-Jan-13 04:29N 38°42' W 009°10'0 0.0
2017-Jan-13 03:30N 38°42' W 009°10'0 0.0
2017-Jan-13 02:30N 38°42' W 009°10'4 3.9
2017-Jan-13 01:31N 38°41' W 009°14'4 3.5
2017-Jan-13 00:23N 38°42' W 009°09'0 0.2
2017-Jan-12 23:28N 38°42' W 009°10'0 0.0
2017-Jan-12 22:28N 38°42' W 009°10'0 0.0
2017-Jan-12 20:23N 38°42' W 009°10'0 0.0
2017-Jan-12 19:27N 38°42' W 009°10'0 0.4
2017-Jan-12 18:32N 38°42' W 009°10'0 0.4
2017-Jan-12 17:32N 38°42' W 009°10'0 0.0
2017-Jan-12 16:32N 38°42' W 009°10'1 0.7
2017-Jan-12 15:32N 38°42' W 009°10'0 0.0
2017-Jan-12 14:33N 38°42' W 009°10'1 0.7
2017-Jan-12 13:33N 38°42' W 009°10'0 0.0
2017-Jan-12 12:32N 38°42' W 009°10'0 0.0
2017-Jan-12 11:33N 38°42' W 009°10'0 0.0
2017-Jan-12 10:32N 38°42' W 009°10'0 0.0
2017-Jan-12 09:30N 38°42' W 009°10'0 0.0
2017-Jan-12 08:32N 38°42' W 009°10'0 0.0
2017-Jan-12 07:29N 38°42' W 009°10'0 0.0
2017-Jan-12 06:26N 38°42' W 009°10'0 0.0
2017-Jan-12 05:23N 38°42' W 009°10'0 0.0
2017-Jan-12 04:32N 38°42' W 009°10'0 0.0
2017-Jan-12 03:32N 38°42' W 009°10'0 0.0
2017-Jan-12 02:33N 38°42' W 009°10'0 0.0
2017-Jan-12 01:32N 38°42' W 009°10'0 0.0
2017-Jan-12 00:16N 38°42' W 009°10'0 0.0
2017-Jan-11 23:09N 38°42' W 009°10'0 0.0
2017-Jan-11 22:25N 38°42' W 009°10'0 0.0
2017-Jan-11 21:30N 38°42' W 009°10'0 0.0
2017-Jan-11 20:28N 38°42' W 009°10'0 0.0
2017-Jan-11 19:30N 38°42' W 009°10'0 0.0
2017-Jan-11 18:30N 38°42' W 009°10'0 0.0
2017-Jan-11 17:33N 38°42' W 009°10'0 0.0
2017-Jan-11 15:25N 38°42' W 009°10'2 2.6
2017-Jan-11 14:33N 38°40' W 009°09'1 0.5
2017-Jan-11 13:31N 38°41' W 009°09'0 0.0
2017-Jan-11 12:33N 38°41' W 009°09'0 0.4
2017-Jan-11 11:33N 38°40' W 009°09'0 0.2
2017-Jan-11 10:30N 38°40' W 009°09'0 0.0
2017-Jan-11 09:33N 38°40' W 009°09'2 2.1
2017-Jan-11 08:31N 38°42' W 009°10'0 0.0
2017-Jan-11 07:31N 38°42' W 009°10'0 0.0
2017-Jan-11 06:32N 38°42' W 009°10'0 0.0
2017-Jan-11 05:33N 38°42' W 009°10'0 0.0
2017-Jan-11 04:33N 38°42' W 009°10'1 1.2
2017-Jan-11 03:33N 38°42' W 009°11'9 9.5
2017-Jan-11 02:33N 38°38' W 009°22'8 7.0
2017-Jan-11 01:27N 38°41' W 009°13'6 5.5
2017-Jan-11 00:20N 38°44' W 009°06'3 3.9
2017-Jan-10 23:31N 38°42' W 009°10'0 0.0
2017-Jan-10 22:33N 38°42' W 009°10'0 0.0
2017-Jan-10 21:32N 38°42' W 009°10'0 0.0
2017-Jan-10 20:24N 38°42' W 009°10'0 0.0
2017-Jan-10 19:30N 38°42' W 009°10'0 0.3
2017-Jan-10 18:24N 38°42' W 009°10'1 1.4
2017-Jan-10 17:30N 38°41' W 009°11'1 1.1
2017-Jan-10 16:27N 38°42' W 009°10'0 0.4
2017-Jan-10 15:26N 38°42' W 009°10'0 0.0
2017-Jan-10 14:29N 38°42' W 009°10'0 0.0
2017-Jan-10 13:31N 38°42' W 009°10'0 0.0
2017-Jan-10 12:20N 38°42' W 009°10'0 0.0
2017-Jan-10 11:28N 38°42' W 009°10'1 0.8
2017-Jan-10 10:28N 38°42' W 009°11'1 0.8
2017-Jan-10 09:33N 38°42' W 009°10'0 0.0
2017-Jan-10 08:27N 38°42' W 009°10'0 0.0
2017-Jan-10 07:25N 38°42' W 009°10'0 0.2
2017-Jan-10 06:33N 38°42' W 009°10'  

Dump ship's entire track history